createdAt,value
2019-05-19T00:01:14.097Z,12.47
2019-05-19T00:03:45.602Z,12.44
2019-05-19T00:06:27.462Z,12.47
2019-05-19T00:09:00.475Z,12.44
2019-05-19T00:11:31.685Z,12.42
2019-05-19T00:14:03.266Z,12.46
2019-05-19T00:16:35.088Z,12.58
2019-05-19T00:19:06.499Z,12.71
2019-05-19T00:21:41.389Z,12.75
2019-05-19T00:24:14.022Z,12.66
2019-05-19T00:26:47.691Z,12.55
2019-05-19T00:29:19.682Z,12.55
2019-05-19T00:31:51.336Z,12.60
2019-05-19T00:34:22.735Z,12.63
2019-05-19T01:03:03.337Z,12.45
2019-05-19T01:05:34.981Z,12.50
2019-05-19T01:08:06.325Z,12.49
2019-05-19T01:10:37.708Z,12.46
2019-05-19T01:13:09.195Z,12.46
2019-05-19T01:15:40.810Z,12.40
2019-05-19T01:18:12.460Z,12.42
2019-05-19T01:20:43.569Z,12.40
2019-05-19T01:23:14.518Z,12.48
2019-05-19T01:25:45.123Z,12.42
2019-05-19T01:28:16.110Z,12.43
2019-05-19T01:30:48.840Z,12.38
2019-05-19T01:33:20.114Z,12.39
2019-05-19T01:35:51.461Z,12.41
2019-05-19T01:38:22.727Z,12.47
2019-05-19T01:40:53.385Z,12.43
2019-05-19T01:43:25.329Z,12.42
2019-05-19T01:45:56.373Z,12.43
2019-05-19T01:48:28.135Z,12.45
2019-05-19T01:50:59.791Z,12.40
2019-05-19T01:53:31.415Z,12.34
2019-05-19T01:56:02.690Z,12.32
2019-05-19T01:58:34.654Z,12.26
2019-05-19T02:01:06.183Z,12.27
2019-05-19T02:03:37.971Z,12.25
2019-05-19T02:06:09.230Z,12.23
2019-05-19T02:08:40.597Z,12.19
2019-05-19T02:11:26.388Z,12.19
2019-05-19T02:13:58.407Z,12.24
2019-05-19T02:16:29.100Z,12.34
2019-05-19T02:19:00.394Z,12.30
2019-05-19T02:21:31.313Z,12.25
2019-05-19T02:24:03.140Z,12.25
2019-05-19T02:26:34.706Z,12.27
2019-05-19T02:29:06.294Z,12.31
2019-05-19T02:31:37.646Z,12.33
2019-05-19T02:34:09.198Z,12.36
2019-05-19T02:36:40.422Z,12.40
2019-05-19T02:39:11.897Z,12.42
2019-05-19T02:41:46.006Z,12.48
2019-05-19T02:44:19.368Z,12.44
2019-05-19T02:46:50.436Z,12.35
2019-05-19T02:49:21.823Z,12.34
2019-05-19T02:51:55.050Z,12.38
2019-05-19T02:54:27.404Z,12.30
2019-05-19T02:56:58.673Z,12.24
2019-05-19T02:59:32.307Z,12.22
2019-05-19T03:02:14.163Z,12.16
2019-05-19T03:04:45.546Z,12.11
2019-05-19T03:07:16.868Z,12.11
2019-05-19T03:09:48.476Z,12.07
2019-05-19T03:12:20.202Z,12.07
2019-05-19T03:14:55.534Z,12.07
2019-05-19T03:17:27.176Z,12.07
2019-05-19T03:19:58.556Z,12.05
2019-05-19T03:22:29.946Z,12.09
2019-05-19T03:25:01.055Z,12.09
2019-05-19T03:27:32.290Z,12.12
2019-05-19T03:30:21.915Z,12.15
2019-05-19T03:32:56.248Z,12.17
2019-05-19T03:35:39.551Z,12.15
2019-05-19T03:38:11.120Z,12.17
2019-05-19T03:40:42.729Z,12.16
2019-05-19T03:43:13.708Z,12.16
2019-05-19T03:45:44.819Z,12.17
2019-05-19T03:48:15.825Z,12.17
2019-05-19T03:50:53.542Z,12.11
2019-05-19T03:53:24.560Z,12.12
2019-05-19T03:55:55.915Z,12.15
2019-05-19T03:58:27.599Z,12.13
2019-05-19T04:00:58.823Z,12.12
2019-05-19T04:03:29.478Z,12.16
2019-05-19T04:06:01.042Z,12.18
2019-05-19T04:08:32.263Z,12.21
2019-05-19T04:11:03.193Z,12.18
2019-05-19T04:13:33.814Z,12.21
2019-05-19T04:16:10.096Z,12.25
2019-05-19T04:18:41.987Z,12.27
2019-05-19T04:21:13.081Z,12.32
2019-05-19T04:23:44.746Z,12.34
2019-05-19T04:26:32.846Z,12.37
2019-05-19T04:29:04.127Z,12.40
2019-05-19T04:31:36.737Z,12.46
2019-05-19T04:34:08.457Z,12.52
2019-05-19T04:36:39.789Z,12.56
2019-05-19T04:39:10.447Z,12.61
2019-05-19T04:41:42.262Z,12.65
2019-05-19T04:44:13.243Z,12.64
2019-05-19T04:46:48.290Z,12.60
2019-05-19T04:49:19.525Z,12.64
2019-05-19T04:52:05.460Z,12.59
2019-05-19T04:54:23.652Z,12.63
2019-05-19T04:56:54.579Z,12.70
2019-05-19T04:59:26.644Z,12.72
2019-05-19T05:01:57.988Z,12.70
2019-05-19T05:04:29.848Z,12.81
2019-05-19T05:07:01.553Z,12.86
2019-05-19T05:09:32.781Z,13.00
2019-05-19T05:12:03.836Z,13.16
2019-05-19T05:14:34.755Z,13.22
2019-05-19T05:17:06.103Z,13.29
2019-05-19T05:19:37.035Z,13.40
2019-05-19T05:22:21.331Z,13.44
2019-05-19T05:24:43.427Z,13.60
2019-05-19T05:27:14.775Z,13.39
2019-05-19T05:29:46.379Z,13.39
2019-05-19T05:32:17.373Z,13.51
2019-05-19T05:34:48.293Z,13.48
2019-05-19T05:37:19.793Z,13.45
2019-05-19T05:39:51.334Z,13.49
2019-05-19T05:42:23.374Z,13.50
2019-05-19T05:44:54.308Z,13.69
2019-05-19T05:47:26.038Z,13.86
2019-05-19T05:49:57.360Z,13.98
2019-05-19T05:52:38.112Z,14.02
2019-05-19T05:55:01.395Z,14.27
2019-05-19T05:57:38.008Z,14.33
2019-05-19T06:00:09.800Z,14.24
2019-05-19T06:10:55.310Z,14.21
2019-05-19T06:16:12.004Z,14.28
2019-05-19T06:18:46.188Z,14.04
2019-05-19T06:21:17.451Z,13.98
2019-05-19T06:23:50.939Z,13.92
2019-05-19T06:26:22.620Z,13.68
2019-05-19T06:29:13.117Z,13.62
2019-05-19T06:31:49.502Z,13.79
2019-05-19T06:37:03.411Z,14.20
2019-05-19T06:39:47.239Z,14.42
2019-05-19T06:42:18.020Z,14.30
2019-05-19T06:44:53.160Z,14.48
2019-05-19T06:47:24.510Z,14.62
2019-05-19T06:52:38.363Z,15.65
2019-05-19T06:57:51.323Z,15.81
2019-05-19T07:00:41.235Z,15.52
2019-05-19T07:03:41.017Z,15.25
2019-05-19T07:09:12.860Z,15.55
2019-05-19T07:11:50.670Z,15.62
2019-05-19T07:14:26.040Z,15.89
2019-05-19T07:16:58.659Z,15.99
2019-05-19T07:19:30.374Z,15.99
2019-05-19T07:22:01.369Z,16.69
2019-05-19T07:24:34.785Z,16.49
2019-05-19T07:27:14.521Z,17.13
2019-05-19T07:29:47.930Z,17.42
2019-05-19T07:32:24.365Z,17.52
2019-05-19T07:34:59.894Z,17.83
2019-05-19T07:37:31.516Z,17.74
2019-05-19T07:40:03.824Z,17.76
2019-05-19T07:42:34.419Z,19.05
2019-05-19T07:45:06.459Z,18.94
2019-05-19T07:47:37.690Z,18.57
2019-05-19T07:50:08.668Z,20.09
2019-05-19T07:52:39.909Z,20.19
2019-05-19T07:55:13.001Z,19.94
2019-05-19T07:57:49.774Z,19.60
2019-05-19T08:00:20.402Z,19.66
2019-05-19T08:02:51.753Z,19.25
2019-05-19T08:05:26.907Z,17.57
2019-05-19T08:07:58.529Z,18.27
2019-05-19T08:10:29.811Z,17.59
2019-05-19T08:13:01.679Z,18.27
2019-05-19T08:15:33.214Z,19.18
2019-05-19T08:18:08.200Z,20.88
2019-05-19T08:20:39.251Z,21.69
2019-05-19T08:23:10.958Z,22.25
2019-05-19T08:25:42.191Z,22.60
2019-05-19T08:28:20.423Z,22.48
2019-05-19T08:30:52.071Z,19.23
2019-05-19T08:33:24.434Z,18.78
2019-05-19T08:35:56.787Z,19.34
2019-05-19T08:38:27.818Z,19.09
2019-05-19T08:40:59.363Z,18.91
2019-05-19T08:43:30.860Z,18.79
2019-05-19T08:46:02.181Z,19.15
2019-05-19T08:48:36.440Z,18.99
2019-05-19T08:51:07.954Z,20.18
2019-05-19T08:53:39.501Z,19.77
2019-05-19T08:56:11.098Z,21.84
2019-05-19T08:58:42.310Z,21.96
2019-05-19T09:01:13.658Z,22.02
2019-05-19T09:03:44.805Z,22.29
2019-05-19T09:06:16.063Z,22.53
2019-05-19T09:08:47.506Z,21.71
2019-05-19T09:11:19.159Z,21.86
2019-05-19T09:13:50.811Z,20.58
2019-05-19T09:16:26.649Z,19.77
2019-05-19T09:18:58.607Z,19.25
2019-05-19T09:21:30.212Z,20.97
2019-05-19T09:24:02.972Z,21.29
2019-05-19T09:26:34.960Z,21.09
2019-05-19T09:29:06.183Z,20.95
2019-05-19T09:31:41.097Z,21.40
2019-05-19T09:34:10.818Z,22.28
2019-05-19T09:36:47.069Z,22.14
2019-05-19T09:39:19.012Z,23.29
2019-05-19T09:41:50.376Z,21.84
2019-05-19T09:44:22.032Z,20.63
2019-05-19T09:47:08.624Z,20.35
2019-05-19T09:49:41.321Z,20.49
2019-05-19T09:52:16.519Z,21.79
2019-05-19T09:54:52.635Z,21.45
2019-05-19T09:57:28.523Z,21.64
2019-05-19T09:59:59.812Z,22.02
2019-05-19T10:02:31.455Z,21.26
2019-05-19T10:05:03.318Z,21.74
2019-05-19T10:07:35.233Z,22.78
2019-05-19T10:10:16.059Z,21.55
2019-05-19T10:12:47.530Z,23.05
2019-05-19T10:15:26.381Z,23.46
2019-05-19T10:17:57.352Z,23.65
2019-05-19T10:20:27.965Z,22.88
2019-05-19T10:22:59.513Z,23.61
2019-05-19T10:25:37.506Z,22.49
2019-05-19T10:28:09.473Z,23.86
2019-05-19T10:30:41.404Z,24.06
2019-05-19T10:33:22.142Z,23.63
2019-05-19T10:35:53.943Z,22.26
2019-05-19T10:38:25.631Z,23.40
2019-05-19T10:40:57.542Z,22.68
2019-05-19T10:43:37.391Z,23.05
2019-05-19T10:46:09.035Z,23.68
2019-05-19T10:48:40.383Z,24.52
2019-05-19T10:51:12.411Z,22.83
2019-05-19T10:53:43.795Z,22.52
2019-05-19T10:56:21.844Z,23.08
2019-05-19T10:58:53.499Z,21.84
2019-05-19T11:01:25.084Z,22.16
2019-05-19T11:03:56.613Z,21.72
2019-05-19T11:06:28.055Z,22.49
2019-05-19T11:08:58.691Z,23.20
2019-05-19T11:11:29.989Z,22.30
2019-05-19T11:14:00.931Z,23.19
2019-05-19T11:16:32.496Z,24.27
2019-05-19T11:19:03.875Z,25.30
2019-05-19T11:21:35.399Z,26.45
2019-05-19T11:24:06.530Z,25.25
2019-05-19T11:26:37.773Z,25.61
2019-05-19T11:29:09.163Z,26.09
2019-05-19T11:31:40.890Z,26.44
2019-05-19T11:34:12.222Z,26.90
2019-05-19T11:36:44.145Z,27.67
2019-05-19T11:39:15.169Z,28.77
2019-05-19T11:41:46.670Z,26.27
2019-05-19T11:44:17.932Z,24.55
2019-05-19T11:46:49.999Z,24.47
2019-05-19T11:49:21.729Z,25.43
2019-05-19T11:51:53.454Z,25.91
2019-05-19T11:54:25.375Z,24.13
2019-05-19T11:56:56.693Z,23.72
2019-05-19T11:59:27.887Z,23.49
2019-05-19T12:01:59.517Z,24.45
2019-05-19T12:04:30.861Z,24.83
2019-05-19T12:07:02.826Z,23.99
2019-05-19T12:09:34.619Z,23.64
2019-05-19T12:12:04.971Z,23.54
2019-05-19T12:14:36.677Z,23.88
2019-05-19T12:17:07.912Z,22.54
2019-05-19T12:19:39.777Z,23.49
2019-05-19T12:22:11.402Z,23.75
2019-05-19T12:24:42.290Z,24.61
2019-05-19T12:27:13.752Z,24.58
2019-05-19T12:29:44.421Z,24.00
2019-05-19T12:32:15.787Z,23.61
2019-05-19T12:34:46.873Z,24.95
2019-05-19T12:37:18.262Z,26.23
2019-05-19T12:39:49.852Z,25.39
2019-05-19T12:42:21.565Z,24.96
2019-05-19T12:44:52.929Z,25.50
2019-05-19T12:47:24.296Z,25.98
2019-05-19T12:49:55.342Z,25.27
2019-05-19T12:52:26.287Z,25.03
2019-05-19T12:54:57.388Z,25.37
2019-05-19T12:57:28.628Z,26.56
2019-05-19T12:59:59.938Z,27.61
2019-05-19T13:02:31.676Z,28.02
2019-05-19T13:05:05.511Z,26.79
2019-05-19T13:07:36.024Z,27.21
2019-05-19T13:10:08.161Z,28.50
2019-05-19T13:12:39.799Z,27.32
2019-05-19T13:15:11.976Z,29.98
2019-05-19T13:17:43.391Z,29.41
2019-05-19T13:20:15.107Z,28.17
2019-05-19T13:22:47.256Z,27.19
2019-05-19T13:25:18.283Z,26.82
2019-05-19T13:27:50.094Z,27.81
2019-05-19T13:30:21.107Z,29.86
2019-05-19T13:32:52.835Z,28.04
2019-05-19T13:35:24.156Z,26.85
2019-05-19T13:37:54.814Z,28.48
2019-05-19T13:40:26.127Z,29.11
2019-05-19T13:42:57.852Z,27.46
2019-05-19T13:45:29.479Z,28.34
2019-05-19T13:48:01.252Z,27.83
2019-05-19T13:50:36.500Z,28.26
2019-05-19T13:53:07.545Z,25.62
2019-05-19T13:55:38.863Z,26.54
2019-05-19T13:58:10.648Z,25.64
2019-05-19T14:00:41.957Z,25.16
2019-05-19T14:03:13.239Z,25.47
2019-05-19T14:05:44.256Z,26.60
2019-05-19T14:08:16.442Z,26.69
2019-05-19T14:10:47.134Z,26.26
2019-05-19T14:13:19.131Z,24.86
2019-05-19T14:15:50.626Z,26.42
2019-05-19T14:18:21.545Z,26.73
2019-05-19T14:20:52.879Z,26.76
2019-05-19T14:23:24.614Z,25.95
2019-05-19T14:25:56.209Z,28.10
2019-05-19T14:28:28.755Z,26.81
2019-05-19T14:30:59.681Z,27.23
2019-05-19T14:33:30.704Z,29.13
2019-05-19T14:36:02.458Z,27.30
2019-05-19T14:38:35.985Z,26.95
2019-05-19T14:41:06.931Z,26.72
2019-05-19T14:43:37.969Z,27.87
2019-05-19T14:46:09.293Z,28.79
2019-05-19T14:48:40.981Z,28.00
2019-05-19T14:51:12.525Z,29.07
2019-05-19T14:53:43.883Z,27.60
2019-05-19T14:56:15.536Z,25.58
2019-05-19T14:58:47.402Z,27.35
2019-05-19T15:01:19.160Z,27.94
2019-05-19T15:03:50.222Z,29.38
2019-05-19T15:06:21.539Z,27.61
2019-05-19T15:08:53.186Z,26.62
2019-05-19T15:11:24.226Z,29.84
2019-05-19T15:13:56.005Z,27.82
2019-05-19T15:16:27.261Z,27.43
2019-05-19T15:18:59.308Z,25.91
2019-05-19T15:21:31.956Z,28.05
2019-05-19T15:24:03.216Z,29.80
2019-05-19T15:26:35.203Z,31.30
2019-05-19T15:29:05.808Z,30.73
2019-05-19T15:31:37.489Z,28.43
2019-05-19T15:34:08.735Z,26.20
2019-05-19T15:36:40.292Z,27.01
2019-05-19T15:39:14.442Z,27.34
2019-05-19T15:41:44.725Z,27.82
2019-05-19T15:44:16.010Z,27.04
2019-05-19T15:46:47.396Z,27.43
2019-05-19T15:49:19.156Z,27.54
2019-05-19T15:52:02.027Z,28.46
2019-05-19T15:54:23.713Z,28.26
2019-05-19T15:56:55.579Z,27.39
2019-05-19T15:59:27.432Z,26.88
2019-05-19T16:01:58.484Z,26.88
2019-05-19T16:04:30.536Z,26.49
2019-05-19T16:07:01.822Z,27.73
2019-05-19T16:09:33.146Z,27.80
2019-05-19T16:12:04.767Z,27.42
2019-05-19T16:14:36.319Z,24.55
2019-05-19T16:17:07.153Z,24.35
2019-05-19T16:19:39.136Z,22.79
2019-05-19T16:22:10.254Z,21.93
2019-05-19T16:24:41.875Z,21.85
2019-05-19T16:27:13.180Z,21.61
2019-05-19T16:29:46.169Z,20.92
2019-05-19T16:32:17.717Z,20.05
2019-05-19T16:34:49.064Z,19.81
2019-05-19T16:37:20.303Z,19.79
2019-05-19T16:39:52.055Z,18.99
2019-05-19T16:42:23.433Z,16.78
2019-05-19T16:44:55.379Z,15.34
2019-05-19T16:47:27.173Z,14.01
2019-05-19T16:49:59.308Z,12.24
2019-05-19T16:52:30.841Z,10.94
2019-05-19T16:55:26.386Z,10.78
2019-05-19T16:57:58.123Z,11.09
2019-05-19T17:00:30.003Z,11.75
2019-05-19T17:03:01.478Z,12.05
2019-05-19T17:05:32.693Z,12.33
2019-05-19T17:08:04.051Z,12.50
2019-05-19T17:10:37.274Z,12.64
2019-05-19T17:13:08.263Z,12.80
2019-05-19T17:15:39.701Z,12.88
2019-05-19T17:18:11.134Z,12.84
2019-05-19T17:20:56.608Z,12.84
2019-05-19T17:23:28.630Z,12.97
2019-05-19T17:26:00.517Z,13.02
2019-05-19T17:28:31.821Z,13.04
2019-05-19T17:31:02.801Z,12.99
2019-05-19T17:33:33.791Z,13.13
2019-05-19T17:36:05.043Z,13.03
2019-05-19T17:38:36.888Z,13.07
2019-05-19T17:41:08.209Z,13.03
2019-05-19T17:43:40.580Z,13.18
2019-05-19T17:46:11.992Z,13.23
2019-05-19T17:48:43.125Z,13.14
2019-05-19T17:51:14.461Z,13.12
2019-05-19T17:53:46.561Z,13.04
2019-05-19T17:56:18.184Z,13.07
2019-05-19T17:58:50.754Z,13.14
2019-05-19T18:01:22.398Z,13.15
2019-05-19T18:03:54.190Z,13.26
2019-05-19T18:06:29.735Z,13.37
2019-05-19T18:09:01.030Z,13.40
2019-05-19T18:11:31.917Z,13.41
2019-05-19T18:14:03.498Z,13.48
2019-05-19T18:16:34.456Z,13.50
2019-05-19T18:19:06.334Z,13.53
2019-05-19T18:21:38.422Z,13.49
2019-05-19T18:24:13.955Z,13.38
2019-05-19T18:26:45.577Z,13.31
2019-05-19T18:29:30.544Z,13.27
2019-05-19T18:31:52.174Z,13.27
2019-05-19T18:34:23.467Z,13.24
2019-05-19T18:36:56.819Z,13.20
2019-05-19T18:39:39.626Z,13.14
2019-05-19T18:42:21.428Z,13.23
2019-05-19T18:45:03.370Z,13.28
2019-05-19T18:47:44.105Z,13.30
2019-05-19T18:50:31.133Z,13.35
2019-05-19T18:53:01.610Z,13.34
2019-05-19T18:55:33.231Z,13.40
2019-05-19T18:58:11.364Z,13.49
2019-05-19T19:00:46.049Z,13.50
2019-05-19T19:03:21.501Z,13.47
2019-05-19T19:05:54.914Z,13.46
2019-05-19T19:08:28.195Z,13.40
2019-05-19T19:10:59.765Z,13.35
2019-05-19T19:13:31.796Z,13.37
2019-05-19T19:16:05.908Z,13.37
2019-05-19T19:18:50.278Z,13.46
2019-05-19T19:21:23.128Z,13.36
2019-05-19T19:23:59.967Z,13.29
2019-05-19T19:26:34.627Z,13.28
2019-05-19T19:29:11.321Z,13.36
2019-05-19T19:31:48.893Z,13.42
2019-05-19T19:34:21.326Z,13.46
2019-05-19T19:36:57.479Z,13.49
2019-05-19T19:39:33.408Z,13.37
2019-05-19T19:42:09.270Z,13.22
2019-05-19T19:44:43.680Z,13.21
2019-05-19T19:47:16.701Z,13.22
2019-05-19T19:49:48.901Z,13.33
2019-05-19T19:52:25.144Z,13.46
2019-05-19T19:55:00.288Z,13.47
2019-05-19T19:57:31.748Z,13.43
2019-05-19T20:00:17.945Z,13.46
2019-05-19T20:02:47.555Z,13.49
2019-05-19T20:05:24.545Z,13.50
2019-05-19T20:08:00.707Z,13.54
2019-05-19T20:10:44.733Z,13.53
2019-05-19T20:13:27.769Z,13.57
2019-05-19T20:16:05.551Z,13.68
2019-05-19T20:18:51.242Z,13.75
2019-05-19T20:21:35.242Z,13.71
2019-05-19T20:24:06.356Z,13.51
2019-05-19T20:26:47.352Z,13.40
2019-05-19T20:29:19.745Z,13.31
2019-05-19T20:31:53.772Z,13.30
2019-05-19T20:34:25.498Z,13.32
2019-05-19T20:37:03.216Z,13.44
2019-05-19T20:39:35.816Z,13.46
2019-05-19T20:42:07.043Z,13.47
2019-05-19T20:44:38.429Z,13.48
2019-05-19T20:47:12.473Z,13.53
2019-05-19T20:49:44.445Z,13.57
2019-05-19T20:52:17.715Z,13.54
2019-05-19T20:55:10.951Z,13.51
2019-05-19T20:57:52.451Z,13.52
2019-05-19T21:00:25.434Z,13.58
2019-05-19T21:03:05.615Z,13.58
2019-05-19T21:05:38.960Z,13.58
2019-05-19T21:08:13.690Z,13.56
2019-05-19T21:10:51.988Z,13.57
2019-05-19T21:13:29.530Z,13.58
2019-05-19T21:16:04.310Z,13.60
2019-05-19T21:18:36.671Z,13.60
2019-05-19T21:21:15.476Z,13.66
2019-05-19T21:23:53.263Z,13.69
2019-05-19T21:26:27.283Z,13.66
2019-05-19T21:29:05.145Z,13.71
2019-05-19T21:31:43.820Z,13.79
2019-05-19T21:34:18.796Z,13.83
2019-05-19T21:36:52.424Z,13.84
2019-05-19T21:39:27.036Z,13.81
2019-05-19T21:42:03.080Z,13.77
2019-05-19T21:44:37.300Z,13.74
2019-05-19T21:47:18.681Z,13.71
2019-05-19T21:49:54.604Z,13.69
2019-05-19T21:52:29.352Z,13.68
2019-05-19T21:55:01.472Z,13.65
2019-05-19T21:57:36.411Z,13.69
2019-05-19T22:00:12.899Z,13.60
2019-05-19T22:03:01.901Z,13.51
2019-05-19T22:05:36.137Z,13.40
2019-05-19T22:08:15.275Z,13.23
2019-05-19T22:10:56.990Z,13.17
2019-05-19T22:13:34.263Z,13.10
2019-05-19T22:16:13.270Z,13.02
2019-05-19T22:18:46.287Z,12.99
2019-05-19T22:21:17.242Z,12.91
2019-05-19T22:23:55.398Z,12.90
2019-05-19T22:26:28.767Z,12.90
2019-05-19T22:29:03.918Z,12.97
2019-05-19T22:31:38.717Z,12.98
2019-05-19T22:34:15.578Z,12.94
2019-05-19T22:36:52.144Z,12.96
2019-05-19T22:39:25.010Z,12.91
2019-05-19T22:42:03.421Z,12.88
2019-05-19T22:44:40.215Z,13.00
2019-05-19T22:47:19.836Z,12.98
2019-05-19T22:49:57.603Z,13.09
2019-05-19T22:52:35.258Z,13.12
2019-05-19T22:55:09.582Z,12.91
2019-05-19T22:57:45.649Z,12.87
2019-05-19T23:00:19.612Z,12.87
2019-05-19T23:02:51.301Z,12.76
2019-05-19T23:05:23.540Z,12.76
2019-05-19T23:07:58.048Z,12.73
2019-05-19T23:10:34.277Z,12.80
2019-05-19T23:13:08.456Z,12.74
2019-05-19T23:15:41.405Z,12.72
2019-05-19T23:18:12.575Z,12.70
2019-05-19T23:20:46.771Z,12.73
2019-05-19T23:23:22.432Z,12.72
2019-05-19T23:25:55.828Z,12.73
2019-05-19T23:28:28.740Z,12.69
2019-05-19T23:31:03.376Z,12.72
2019-05-19T23:33:36.739Z,12.77
2019-05-19T23:36:09.088Z,12.82
2019-05-19T23:38:43.312Z,12.88
2019-05-19T23:41:19.686Z,12.93
2019-05-19T23:43:50.676Z,12.98
2019-05-19T23:46:26.103Z,13.18
2019-05-19T23:48:59.607Z,13.23
2019-05-19T23:51:32.828Z,13.25
2019-05-19T23:54:06.093Z,13.29
2019-05-19T23:56:41.158Z,13.30
2019-05-19T23:59:16.914Z,13.30
